Time;durP1;ratioP1;P1;durP2;ratioP2;P2;SDS_P1;SDS_P2;PMS_P1;PMS_P2;Temp;Humidity;BMP_temperature;BMP_pressure;BME280_temperature;BME280_humidity;BME280_pressure;Samples;Min_cycle;Max_cycle;Signal;HPM_P1;HPM_P2
2024/01/09 00:00:55;;;;;;;24.15;7.43;;;;;;;;;;5066248;28;20031;-56
2024/01/09 00:03:20;;;;;;;25.17;8.30;;;;;;;;;;5065942;28;20374;-56
2024/01/09 00:05:45;;;;;;;25.30;8.13;;;;;;;;;;5050845;28;20033;-57
2024/01/09 00:08:10;;;;;;;22.87;7.47;;;;;;;;;;5067699;28;20042;-56
2024/01/09 00:10:35;;;;;;;25.23;7.80;;;;;;;;;;5061355;28;20028;-58
2024/01/09 00:13:01;;;;;;;26.25;7.97;;;;;;;;;;5061016;28;20051;-57
2024/01/09 00:15:27;;;;;;;24.38;8.15;;;;;;;;;;5051112;28;20033;-57
2024/01/09 00:17:52;;;;;;;28.30;8.43;;;;;;;;;;5061028;28;20036;-56
2024/01/09 00:20:17;;;;;;;25.58;7.75;;;;;;;;;;5064803;28;20037;-57
2024/01/09 00:22:43;;;;;;;26.57;8.50;;;;;;;;;;5061029;28;20025;-58
2024/01/09 00:25:08;;;;;;;28.48;8.00;;;;;;;;;;5062569;28;20488;-56
2024/01/09 00:27:34;;;;;;;22.90;7.35;;;;;;;;;;5068768;28;20020;-57
2024/01/09 00:30:00;;;;;;;27.42;8.50;;;;;;;;;;5070590;28;20518;-57
2024/01/09 00:32:26;;;;;;;24.88;8.35;;;;;;;;;;5064555;28;20029;-57
2024/01/09 00:34:51;;;;;;;26.70;9.18;;;;;;;;;;5065288;28;20161;-57
2024/01/09 00:37:16;;;;;;;25.63;8.32;;;;;;;;;;5056498;28;20079;-57
2024/01/09 00:39:41;;;;;;;27.30;9.00;;;;;;;;;;5064464;28;20477;-57
2024/01/09 00:42:06;;;;;;;24.75;7.57;;;;;;;;;;5061943;28;20032;-57
2024/01/09 00:44:31;;;;;;;25.60;7.93;;;;;;;;;;5070611;28;20028;-57
2024/01/09 00:46:56;;;;;;;28.13;8.53;;;;;;;;;;5068276;28;20498;-56
2024/01/09 00:49:22;;;;;;;21.85;7.75;;;;;;;;;;5060222;28;20102;-57
2024/01/09 00:51:47;;;;;;;28.10;8.77;;;;;;;;;;5062446;28;20031;-56
2024/01/09 00:54:12;;;;;;;26.10;8.13;;;;;;;;;;5070041;28;20040;-57
2024/01/09 00:56:37;;;;;;;26.85;8.80;;;;;;;;;;5069921;28;20024;-57
2024/01/09 00:59:02;;;;;;;23.25;8.82;;;;;;;;;;5064592;28;20515;-57
2024/01/09 01:01:27;;;;;;;32.28;9.27;;;;;;;;;;5065783;28;20031;-57
2024/01/09 01:03:52;;;;;;;25.45;8.43;;;;;;;;;;5061885;28;20037;-58
2024/01/09 01:06:18;;;;;;;26.08;8.43;;;;;;;;;;5061804;28;20472;-57
2024/01/09 01:08:43;;;;;;;26.67;8.88;;;;;;;;;;5053145;28;20067;-55
2024/01/09 01:11:08;;;;;;;26.40;8.80;;;;;;;;;;5070230;28;20035;-58
2024/01/09 01:13:33;;;;;;;27.15;8.52;;;;;;;;;;5068430;28;20488;-58
2024/01/09 01:15:58;;;;;;;27.27;7.88;;;;;;;;;;5069776;28;20465;-58
2024/01/09 01:18:23;;;;;;;26.47;9.00;;;;;;;;;;5062048;28;20086;-55
2024/01/09 01:20:49;;;;;;;26.97;8.03;;;;;;;;;;5066796;28;20024;-55
2024/01/09 01:23:14;;;;;;;29.50;9.20;;;;;;;;;;5054913;28;20404;-57
2024/01/09 01:25:40;;;;;;;25.30;8.02;;;;;;;;;;5069826;28;20472;-55
2024/01/09 01:28:05;;;;;;;25.40;8.90;;;;;;;;;;5069777;28;20021;-56
2024/01/09 01:30:30;;;;;;;28.43;9.53;;;;;;;;;;5067730;28;20434;-55
2024/01/09 01:32:55;;;;;;;27.88;8.95;;;;;;;;;;5069758;28;20108;-55
2024/01/09 01:35:20;;;;;;;28.90;8.98;;;;;;;;;;5055343;28;20033;-59
2024/01/09 01:37:46;;;;;;;28.25;8.35;;;;;;;;;;5066683;28;20033;-57
2024/01/09 01:40:11;;;;;;;29.98;9.90;;;;;;;;;;5077767;28;20115;-56
2024/01/09 01:42:36;;;;;;;28.42;9.00;;;;;;;;;;5077417;28;20078;-58
2024/01/09 01:45:01;;;;;;;26.65;8.77;;;;;;;;;;5066933;28;20021;-58
2024/01/09 01:47:27;;;;;;;32.73;9.70;;;;;;;;;;5061331;28;20081;-57
2024/01/09 01:49:52;;;;;;;29.10;8.93;;;;;;;;;;5069997;28;20037;-56
2024/01/09 01:52:18;;;;;;;28.85;8.95;;;;;;;;;;5060085;28;20104;-57
2024/01/09 01:54:43;;;;;;;28.52;8.52;;;;;;;;;;5071120;28;20028;-57
2024/01/09 01:57:09;;;;;;;30.75;9.50;;;;;;;;;;5072909;28;20032;-58
2024/01/09 01:59:37;;;;;;;29.85;9.77;;;;;;;;;;5072016;28;20366;-58
2024/01/09 02:02:03;;;;;;;29.10;9.48;;;;;;;;;;5070547;28;20786;-56
2024/01/09 02:04:28;;;;;;;30.33;8.48;;;;;;;;;;5068645;28;20103;-57
2024/01/09 02:06:53;;;;;;;34.50;9.63;;;;;;;;;;5069404;28;20123;-57
2024/01/09 02:09:19;;;;;;;29.37;8.90;;;;;;;;;;5071357;28;20025;-57
2024/01/09 02:11:48;;;;;;;28.45;9.52;;;;;;;;;;5061405;28;20035;-57
2024/01/09 02:14:13;;;;;;;26.25;9.13;;;;;;;;;;5073165;28;20055;-58
2024/01/09 02:16:38;;;;;;;28.17;8.23;;;;;;;;;;5065236;28;20048;-56
2024/01/09 02:19:03;;;;;;;29.30;9.27;;;;;;;;;;5058410;28;20029;-56
2024/01/09 02:21:29;;;;;;;27.27;8.87;;;;;;;;;;5068792;28;20104;-58
2024/01/09 02:23:54;;;;;;;29.38;9.32;;;;;;;;;;5073155;28;20028;-57
2024/01/09 02:26:20;;;;;;;31.17;10.80;;;;;;;;;;5070347;28;20456;-56
2024/01/09 02:28:47;;;;;;;31.27;9.20;;;;;;;;;;5070617;28;20552;-60
2024/01/09 02:31:12;;;;;;;31.27;9.55;;;;;;;;;;5068187;28;20016;-57
2024/01/09 02:33:37;;;;;;;32.45;10.02;;;;;;;;;;5071863;28;20481;-57
2024/01/09 02:36:03;;;;;;;32.85;9.55;;;;;;;;;;5072180;28;20024;-58
2024/01/09 02:38:28;;;;;;;31.73;9.18;;;;;;;;;;5060450;28;20040;-57
2024/01/09 02:40:53;;;;;;;31.63;10.20;;;;;;;;;;5052320;28;20729;-56
2024/01/09 02:43:18;;;;;;;32.05;9.95;;;;;;;;;;5063552;28;20028;-57
2024/01/09 02:45:43;;;;;;;29.90;9.48;;;;;;;;;;5069991;28;20028;-57
2024/01/09 02:48:08;;;;;;;31.25;9.25;;;;;;;;;;5052633;28;20025;-57
2024/01/09 02:50:34;;;;;;;28.25;9.07;;;;;;;;;;5051778;28;20043;-57
2024/01/09 02:52:59;;;;;;;30.45;9.15;;;;;;;;;;5055650;28;20035;-57
2024/01/09 02:55:24;;;;;;;30.35;9.60;;;;;;;;;;5053800;28;20029;-57
2024/01/09 02:57:49;;;;;;;32.43;9.63;;;;;;;;;;5057448;28;20056;-57
2024/01/09 03:00:14;;;;;;;30.00;9.13;;;;;;;;;;5069515;28;20442;-57
2024/01/09 03:02:40;;;;;;;27.73;8.93;;;;;;;;;;5069286;28;20067;-56
2024/01/09 03:05:06;;;;;;;33.77;10.07;;;;;;;;;;5066367;28;20546;-57
2024/01/09 03:07:31;;;;;;;28.00;8.70;;;;;;;;;;5064232;28;20025;-57
2024/01/09 03:09:57;;;;;;;31.07;9.77;;;;;;;;;;5063570;28;20025;-57
2024/01/09 03:12:22;;;;;;;25.08;8.95;;;;;;;;;;5055281;28;20496;-56
2024/01/09 03:14:47;;;;;;;32.33;9.53;;;;;;;;;;5061713;28;20028;-58
2024/01/09 03:17:12;;;;;;;28.45;9.60;;;;;;;;;;5067412;28;20074;-56
2024/01/09 03:19:37;;;;;;;31.43;9.37;;;;;;;;;;5059188;28;20049;-57
2024/01/09 03:22:03;;;;;;;29.47;9.90;;;;;;;;;;5051692;28;20388;-57
2024/01/09 03:24:28;;;;;;;30.88;9.05;;;;;;;;;;5064841;28;20029;-57
2024/01/09 03:26:53;;;;;;;30.13;9.32;;;;;;;;;;5071343;28;20025;-57
2024/01/09 03:29:18;;;;;;;26.90;9.18;;;;;;;;;;5057931;28;20033;-57
2024/01/09 03:31:43;;;;;;;27.97;9.43;;;;;;;;;;5060236;28;20530;-57
2024/01/09 03:34:08;;;;;;;33.87;8.97;;;;;;;;;;5066344;28;20013;-58
2024/01/09 03:36:34;;;;;;;30.73;9.48;;;;;;;;;;5055852;28;20036;-55
2024/01/09 03:38:59;;;;;;;31.35;9.10;;;;;;;;;;5051815;28;20025;-56
2024/01/09 03:41:24;;;;;;;31.15;10.00;;;;;;;;;;5069217;28;20485;-56
2024/01/09 03:43:49;;;;;;;33.83;10.23;;;;;;;;;;5063710;28;20024;-58
2024/01/09 03:46:14;;;;;;;31.97;9.93;;;;;;;;;;5062260;28;20028;-58
2024/01/09 03:48:39;;;;;;;35.03;10.15;;;;;;;;;;5056244;28;20059;-58
2024/01/09 03:51:04;;;;;;;26.90;9.23;;;;;;;;;;5069343;28;20021;-58
2024/01/09 03:53:29;;;;;;;34.88;10.70;;;;;;;;;;5061227;28;20029;-57
2024/01/09 03:55:55;;;;;;;30.27;9.93;;;;;;;;;;5051677;28;20085;-58
2024/01/09 03:58:20;;;;;;;32.17;9.60;;;;;;;;;;5068961;28;20017;-57
2024/01/09 04:00:45;;;;;;;32.15;9.73;;;;;;;;;;5070589;28;20031;-57
2024/01/09 04:03:10;;;;;;;31.47;10.07;;;;;;;;;;5070581;28;20040;-57
2024/01/09 04:05:35;;;;;;;29.58;9.88;;;;;;;;;;5072007;28;20043;-57
2024/01/09 04:08:00;;;;;;;32.40;10.43;;;;;;;;;;5072150;28;20025;-58
2024/01/09 04:10:25;;;;;;;32.72;10.57;;;;;;;;;;5064149;28;20032;-57
2024/01/09 04:12:51;;;;;;;32.55;10.68;;;;;;;;;;5070224;28;20028;-57
2024/01/09 04:15:16;;;;;;;29.70;10.53;;;;;;;;;;5067974;28;20055;-57
2024/01/09 04:17:41;;;;;;;32.05;10.15;;;;;;;;;;5057293;28;20016;-57
2024/01/09 04:20:07;;;;;;;34.00;10.33;;;;;;;;;;5060634;28;20016;-57
2024/01/09 04:22:32;;;;;;;28.42;10.10;;;;;;;;;;5060693;28;20073;-57
2024/01/09 04:24:57;;;;;;;34.00;10.95;;;;;;;;;;5051279;28;20025;-56
2024/01/09 04:27:22;;;;;;;36.87;10.87;;;;;;;;;;5050361;28;20075;-56
2024/01/09 04:29:48;;;;;;;31.50;9.70;;;;;;;;;;5050121;28;20105;-58
2024/01/09 04:32:13;;;;;;;32.65;10.45;;;;;;;;;;5054050;28;20543;-57
2024/01/09 04:34:38;;;;;;;35.55;10.93;;;;;;;;;;5072870;28;20088;-57
2024/01/09 04:37:03;;;;;;;33.33;11.00;;;;;;;;;;5075094;28;20032;-57
2024/01/09 04:39:28;;;;;;;37.20;11.67;;;;;;;;;;5070298;28;20373;-57
2024/01/09 04:41:53;;;;;;;35.03;11.07;;;;;;;;;;5069867;28;20174;-56
2024/01/09 04:44:19;;;;;;;30.60;10.13;;;;;;;;;;5069762;28;20028;-56
2024/01/09 04:46:44;;;;;;;36.20;10.47;;;;;;;;;;5070502;28;20485;-56
2024/01/09 04:49:09;;;;;;;33.65;10.48;;;;;;;;;;5070350;28;20082;-57
2024/01/09 04:51:34;;;;;;;38.13;10.55;;;;;;;;;;5068579;28;20032;-57
2024/01/09 04:53:59;;;;;;;39.42;11.75;;;;;;;;;;5069254;28;20448;-58
2024/01/09 04:56:25;;;;;;;32.30;10.40;;;;;;;;;;5059346;28;20029;-58
2024/01/09 04:58:53;;;;;;;30.92;10.90;;;;;;;;;;5068713;28;20381;-57
2024/01/09 05:01:18;;;;;;;30.90;10.38;;;;;;;;;;5061949;28;20028;-56
2024/01/09 05:03:47;;;;;;;33.45;10.27;;;;;;;;;;5068694;28;20032;-57
2024/01/09 05:06:12;;;;;;;34.15;10.57;;;;;;;;;;5070265;28;20025;-56
2024/01/09 05:08:37;;;;;;;32.53;9.87;;;;;;;;;;5070465;28;20078;-56
2024/01/09 05:11:02;;;;;;;36.70;10.32;;;;;;;;;;5069908;28;20050;-56
2024/01/09 05:13:28;;;;;;;36.63;11.17;;;;;;;;;;5073793;28;20012;-57
2024/01/09 05:15:53;;;;;;;30.55;10.02;;;;;;;;;;5074417;28;20017;-57
2024/01/09 05:18:18;;;;;;;34.47;9.73;;;;;;;;;;5068606;28;20491;-57
2024/01/09 05:20:43;;;;;;;31.30;10.18;;;;;;;;;;5070031;28;20115;-57
2024/01/09 05:23:09;;;;;;;34.40;10.77;;;;;;;;;;5058600;28;20025;-56
2024/01/09 05:25:34;;;;;;;32.47;10.10;;;;;;;;;;5070637;28;20048;-56
2024/01/09 05:27:59;;;;;;;37.63;10.90;;;;;;;;;;5054719;28;20021;-56
2024/01/09 05:30:25;;;;;;;29.33;9.48;;;;;;;;;;5064287;28;20017;-56
2024/01/09 05:32:50;;;;;;;36.55;10.15;;;;;;;;;;5061151;28;20036;-56
2024/01/09 05:35:16;;;;;;;39.10;11.23;;;;;;;;;;5061882;28;20596;-55
2024/01/09 05:37:41;;;;;;;35.17;10.57;;;;;;;;;;5058853;28;20711;-56
2024/01/09 05:40:07;;;;;;;34.97;10.85;;;;;;;;;;5064773;28;20044;-56
2024/01/09 05:42:32;;;;;;;32.03;10.30;;;;;;;;;;5059886;28;20029;-56
2024/01/09 05:44:57;;;;;;;32.38;10.40;;;;;;;;;;5052614;28;20086;-56
2024/01/09 05:47:22;;;;;;;34.95;11.05;;;;;;;;;;5058429;28;20032;-56
2024/01/09 05:49:47;;;;;;;31.05;9.88;;;;;;;;;;5061913;28;20112;-57
2024/01/09 05:52:13;;;;;;;31.83;10.40;;;;;;;;;;5048257;28;20025;-57
2024/01/09 05:54:43;;;;;;;31.15;10.18;;;;;;;;;;5052321;28;20024;-57
2024/01/09 05:57:08;;;;;;;36.60;10.55;;;;;;;;;;5061240;28;20512;-57
2024/01/09 05:59:33;;;;;;;37.05;10.60;;;;;;;;;;5063746;28;20091;-56
2024/01/09 06:01:59;;;;;;;35.83;10.53;;;;;;;;;;5064774;28;20028;-56
2024/01/09 06:04:24;;;;;;;32.80;9.60;;;;;;;;;;5065477;28;20119;-56
2024/01/09 06:06:49;;;;;;;32.67;10.27;;;;;;;;;;5069796;28;20032;-56
2024/01/09 06:09:14;;;;;;;37.20;10.60;;;;;;;;;;5061842;28;20048;-56
2024/01/09 06:11:39;;;;;;;31.08;9.88;;;;;;;;;;5066528;28;20110;-56
2024/01/09 06:14:04;;;;;;;33.87;11.50;;;;;;;;;;5061106;28;20464;-56
2024/01/09 06:16:30;;;;;;;36.00;10.67;;;;;;;;;;5060245;28;20107;-56
2024/01/09 06:18:55;;;;;;;28.67;9.77;;;;;;;;;;5065322;28;20043;-57
2024/01/09 06:21:20;;;;;;;31.25;10.25;;;;;;;;;;5074628;28;20029;-57
2024/01/09 06:23:47;;;;;;;33.30;11.10;;;;;;;;;;5073850;28;20400;-57
2024/01/09 06:26:12;;;;;;;32.30;11.02;;;;;;;;;;5073780;28;20747;-57
2024/01/09 06:28:37;;;;;;;32.90;10.60;;;;;;;;;;5073149;28;20021;-57
2024/01/09 06:31:03;;;;;;;32.33;11.07;;;;;;;;;;5072180;28;20017;-56
2024/01/09 06:33:28;;;;;;;34.13;10.47;;;;;;;;;;5072032;28;20106;-55
2024/01/09 06:35:53;;;;;;;32.95;11.18;;;;;;;;;;5072195;28;20032;-58
2024/01/09 06:38:18;;;;;;;29.42;10.00;;;;;;;;;;5063873;28;20173;-57
2024/01/09 06:40:44;;;;;;;32.83;10.65;;;;;;;;;;5069180;28;20036;-57
2024/01/09 06:43:09;;;;;;;37.05;11.45;;;;;;;;;;5059606;28;20032;-55
2024/01/09 06:45:34;;;;;;;36.87;11.50;;;;;;;;;;5059833;28;20503;-55
2024/01/09 06:48:00;;;;;;;35.38;12.10;;;;;;;;;;5065827;28;20427;-57
2024/01/09 06:50:25;;;;;;;40.13;11.13;;;;;;;;;;5069127;28;20017;-56
2024/01/09 06:52:50;;;;;;;39.75;12.00;;;;;;;;;;5070885;28;20029;-57
2024/01/09 06:55:15;;;;;;;34.75;12.25;;;;;;;;;;5071889;28;20029;-57
2024/01/09 06:57:40;;;;;;;35.63;10.77;;;;;;;;;;5072216;28;20032;-55
2024/01/09 07:00:06;;;;;;;39.53;11.53;;;;;;;;;;5063409;28;20117;-57
2024/01/09 07:02:31;;;;;;;37.08;11.75;;;;;;;;;;5062049;28;20032;-57
2024/01/09 07:04:57;;;;;;;38.63;11.50;;;;;;;;;;5052013;28;20107;-57
2024/01/09 07:07:22;;;;;;;41.53;11.68;;;;;;;;;;5051908;28;20643;-56
2024/01/09 07:09:47;;;;;;;37.90;11.10;;;;;;;;;;5052530;28;20086;-55
2024/01/09 07:12:13;;;;;;;34.30;11.55;;;;;;;;;;5058900;28;20364;-56
2024/01/09 07:14:38;;;;;;;35.88;11.15;;;;;;;;;;5054164;28;20013;-57
2024/01/09 07:17:07;;;;;;;35.88;10.52;;;;;;;;;;5058381;28;20036;-58
2024/01/09 07:19:33;;;;;;;33.60;11.13;;;;;;;;;;5061849;28;20518;-57
2024/01/09 07:21:58;;;;;;;38.40;11.10;;;;;;;;;;5053393;28;20029;-55
2024/01/09 07:24:23;;;;;;;38.33;11.98;;;;;;;;;;5059678;28;20040;-56
2024/01/09 07:26:48;;;;;;;37.10;10.70;;;;;;;;;;5068025;28;20025;-58
2024/01/09 07:29:16;;;;;;;35.08;10.55;;;;;;;;;;5053476;28;20493;-57
2024/01/09 07:31:41;;;;;;;35.08;10.48;;;;;;;;;;5052415;28;20028;-56
2024/01/09 07:34:07;;;;;;;36.28;11.88;;;;;;;;;;5058783;28;20094;-57
2024/01/09 07:36:32;;;;;;;37.55;11.85;;;;;;;;;;5048321;28;20028;-57
2024/01/09 07:38:57;;;;;;;38.60;12.43;;;;;;;;;;5056532;28;20378;-58
2024/01/09 07:41:22;;;;;;;39.83;12.63;;;;;;;;;;5068076;28;20033;-58
2024/01/09 07:43:47;;;;;;;33.43;11.43;;;;;;;;;;5053077;28;20056;-57
2024/01/09 07:46:12;;;;;;;38.10;11.47;;;;;;;;;;5057997;28;20025;-58
2024/01/09 07:48:38;;;;;;;39.22;11.98;;;;;;;;;;5069388;28;20484;-56
2024/01/09 07:51:03;;;;;;;39.60;11.50;;;;;;;;;;5069226;28;20029;-58
2024/01/09 07:53:28;;;;;;;38.80;11.27;;;;;;;;;;5070128;28;20025;-57
2024/01/09 07:55:53;;;;;;;39.57;13.03;;;;;;;;;;5070520;28;20433;-58
2024/01/09 07:58:19;;;;;;;34.83;11.27;;;;;;;;;;5070747;28;20035;-59
2024/01/09 08:00:44;;;;;;;36.55;12.20;;;;;;;;;;5070099;28;20665;-58
2024/01/09 08:03:09;;;;;;;35.43;11.03;;;;;;;;;;5070343;28;20555;-58
2024/01/09 08:05:34;;;;;;;40.63;12.53;;;;;;;;;;5070807;28;20434;-58
2024/01/09 08:07:59;;;;;;;38.70;12.27;;;;;;;;;;5067866;28;20031;-58
2024/01/09 08:10:25;;;;;;;36.25;11.77;;;;;;;;;;5070903;28;20020;-58
2024/01/09 08:12:51;;;;;;;39.17;12.30;;;;;;;;;;5070257;28;20014;-57
2024/01/09 08:15:17;;;;;;;43.58;12.02;;;;;;;;;;5070508;28;20020;-58
2024/01/09 08:17:42;;;;;;;37.63;11.63;;;;;;;;;;5072990;28;20536;-58
2024/01/09 08:20:07;;;;;;;41.92;12.23;;;;;;;;;;5070774;28;20028;-57
2024/01/09 08:22:32;;;;;;;39.97;12.40;;;;;;;;;;5064950;28;20064;-57
2024/01/09 08:24:57;;;;;;;40.63;12.23;;;;;;;;;;5072136;28;20032;-56
2024/01/09 08:27:22;;;;;;;40.57;12.40;;;;;;;;;;5071836;28;20476;-57
2024/01/09 08:29:48;;;;;;;37.33;11.50;;;;;;;;;;5072309;28;20031;-57
2024/01/09 08:32:16;;;;;;;37.08;12.20;;;;;;;;;;5070264;28;20112;-58
2024/01/09 08:34:41;;;;;;;38.30;11.73;;;;;;;;;;5067443;28;20044;-57
2024/01/09 08:37:07;;;;;;;52.13;13.48;;;;;;;;;;5070140;28;20017;-56
2024/01/09 08:39:32;;;;;;;38.90;12.07;;;;;;;;;;5070786;28;20021;-56
2024/01/09 08:41:57;;;;;;;40.78;12.73;;;;;;;;;;5071465;28;20020;-57
2024/01/09 08:44:25;;;;;;;49.03;14.05;;;;;;;;;;5072527;28;20025;-57
2024/01/09 08:46:50;;;;;;;37.88;12.93;;;;;;;;;;5081310;28;20050;-57
2024/01/09 08:49:15;;;;;;;37.55;12.38;;;;;;;;;;5086743;28;20033;-58
2024/01/09 08:51:41;;;;;;;41.08;12.80;;;;;;;;;;5085481;28;20055;-58
2024/01/09 08:54:07;;;;;;;37.30;12.25;;;;;;;;;;5091120;28;20063;-56
2024/01/09 08:56:32;;;;;;;44.55;14.20;;;;;;;;;;5077864;28;20028;-58
2024/01/09 08:58:57;;;;;;;41.80;13.07;;;;;;;;;;5077396;28;20013;-58
2024/01/09 09:01:22;;;;;;;37.83;13.15;;;;;;;;;;5076622;28;20489;-58
2024/01/09 09:03:48;;;;;;;43.53;12.63;;;;;;;;;;5076550;28;20020;-58
2024/01/09 09:06:14;;;;;;;40.25;12.85;;;;;;;;;;5066210;28;20090;-57
2024/01/09 09:08:39;;;;;;;39.88;13.30;;;;;;;;;;5077182;28;20433;-58
2024/01/09 09:11:06;;;;;;;41.65;13.10;;;;;;;;;;5076936;28;20016;-58
2024/01/09 09:13:31;;;;;;;38.95;12.85;;;;;;;;;;5074688;28;20023;-58
2024/01/09 09:15:56;;;;;;;44.07;13.20;;;;;;;;;;5077023;28;20016;-59
2024/01/09 09:18:22;;;;;;;44.72;13.20;;;;;;;;;;5078120;28;20048;-61
2024/01/09 09:20:47;;;;;;;41.13;13.00;;;;;;;;;;5075080;28;20021;-57
2024/01/09 09:23:12;;;;;;;38.67;13.40;;;;;;;;;;5076856;28;20028;-58
2024/01/09 09:25:37;;;;;;;40.53;13.05;;;;;;;;;;5080582;28;20131;-58
2024/01/09 09:28:02;;;;;;;38.58;13.27;;;;;;;;;;5085375;28;20025;-58
2024/01/09 09:30:28;;;;;;;44.53;14.30;;;;;;;;;;5088713;28;20360;-58
2024/01/09 09:32:56;;;;;;;42.13;14.05;;;;;;;;;;5082848;28;20035;-58
2024/01/09 09:35:22;;;;;;;38.63;13.05;;;;;;;;;;5076007;28;20059;-57
2024/01/09 09:37:47;;;;;;;38.70;12.95;;;;;;;;;;5076914;28;20020;-58
2024/01/09 09:40:12;;;;;;;41.88;14.05;;;;;;;;;;5076576;28;20033;-58
2024/01/09 09:42:38;;;;;;;45.67;14.37;;;;;;;;;;5075839;28;20534;-58
2024/01/09 09:45:07;;;;;;;45.65;14.07;;;;;;;;;;5076501;28;20033;-57
2024/01/09 09:47:33;;;;;;;41.28;13.65;;;;;;;;;;5075115;28;20111;-59
2024/01/09 09:49:58;;;;;;;44.60;14.03;;;;;;;;;;5073385;28;20112;-59
2024/01/09 09:52:24;;;;;;;40.97;13.73;;;;;;;;;;5072767;28;20529;-56
2024/01/09 09:54:49;;;;;;;44.72;13.80;;;;;;;;;;5076603;28;20023;-57
2024/01/09 09:57:16;;;;;;;44.38;14.13;;;;;;;;;;5076391;28;20476;-58
2024/01/09 09:59:41;;;;;;;47.35;14.70;;;;;;;;;;5072190;28;20052;-59
2024/01/09 10:02:10;;;;;;;39.17;12.90;;;;;;;;;;5072268;28;20440;-58
2024/01/09 10:04:45;;;;;;;42.05;13.02;;;;;;;;;;5071829;28;20025;-58
2024/01/09 10:07:11;;;;;;;40.75;13.63;;;;;;;;;;5067172;28;20020;-58
2024/01/09 10:09:42;;;;;;;42.47;13.63;;;;;;;;;;5073736;28;20043;-56
2024/01/09 10:12:07;;;;;;;39.80;13.18;;;;;;;;;;5072883;28;20016;-56
2024/01/09 10:14:32;;;;;;;45.73;12.53;;;;;;;;;;5072085;28;20032;-54
2024/01/09 10:17:03;;;;;;;42.58;14.43;;;;;;;;;;5073277;28;20438;-58
2024/01/09 10:19:28;;;;;;;40.03;13.48;;;;;;;;;;5072859;28;20482;-58
2024/01/09 10:21:53;;;;;;;45.13;13.82;;;;;;;;;;5065809;28;20024;-57
2024/01/09 10:24:19;;;;;;;40.53;13.07;;;;;;;;;;5072092;28;20040;-58
2024/01/09 10:26:44;;;;;;;40.35;12.90;;;;;;;;;;5072907;28;20032;-58
2024/01/09 10:29:09;;;;;;;41.60;12.63;;;;;;;;;;5072801;28;20082;-58
2024/01/09 10:31:35;;;;;;;40.38;13.38;;;;;;;;;;5072422;28;20066;-57
2024/01/09 10:34:00;;;;;;;39.47;13.47;;;;;;;;;;5072137;28;20559;-57
2024/01/09 10:36:26;;;;;;;40.30;13.07;;;;;;;;;;5070098;28;20483;-58
2024/01/09 10:38:51;;;;;;;43.38;14.85;;;;;;;;;;5072103;28;20435;-58
2024/01/09 10:41:17;;;;;;;37.33;12.80;;;;;;;;;;5071558;28;20028;-56
2024/01/09 10:43:42;;;;;;;43.45;13.23;;;;;;;;;;5062851;28;20020;-58
2024/01/09 10:46:08;;;;;;;43.67;14.88;;;;;;;;;;5072123;28;20389;-58
2024/01/09 10:48:33;;;;;;;38.47;13.73;;;;;;;;;;5071083;28;20025;-57
2024/01/09 10:50:59;;;;;;;43.45;14.07;;;;;;;;;;5062092;28;20243;-58
2024/01/09 10:53:24;;;;;;;41.40;14.23;;;;;;;;;;5069691;28;20404;-58
2024/01/09 10:55:50;;;;;;;40.85;13.32;;;;;;;;;;5070925;28;20086;-57
2024/01/09 10:58:16;;;;;;;47.33;14.27;;;;;;;;;;5071440;28;20012;-56
2024/01/09 11:00:41;;;;;;;40.47;13.95;;;;;;;;;;5071412;28;20116;-57
2024/01/09 11:03:06;;;;;;;40.40;13.10;;;;;;;;;;5071176;28;20020;-55
2024/01/09 11:05:31;;;;;;;47.65;14.63;;;;;;;;;;5071621;28;20035;-57
2024/01/09 11:07:58;;;;;;;41.37;13.63;;;;;;;;;;5074753;28;20020;-58
2024/01/09 11:10:24;;;;;;;42.53;13.38;;;;;;;;;;5079755;28;20077;-59
2024/01/09 11:12:51;;;;;;;41.35;13.18;;;;;;;;;;5068027;28;20032;-58
2024/01/09 11:15:27;;;;;;;39.45;14.40;;;;;;;;;;5072332;28;20400;-57
2024/01/09 11:17:55;;;;;;;39.17;14.15;;;;;;;;;;5064746;28;20145;-58
2024/01/09 11:20:21;;;;;;;43.67;14.88;;;;;;;;;;5055803;28;20021;-58
2024/01/09 11:22:46;;;;;;;40.65;14.07;;;;;;;;;;5052838;28;20029;-59
2024/01/09 11:25:18;;;;;;;38.83;13.93;;;;;;;;;;5053587;28;20032;-56
2024/01/09 11:27:46;;;;;;;38.17;13.75;;;;;;;;;;5072296;28;20065;-57
2024/01/09 11:30:14;;;;;;;40.03;12.77;;;;;;;;;;5071654;28;20032;-58
2024/01/09 11:32:39;;;;;;;36.45;13.25;;;;;;;;;;5072375;28;20025;-58
2024/01/09 11:35:14;;;;;;;42.53;14.48;;;;;;;;;;5072320;28;20021;-56
2024/01/09 11:37:40;;;;;;;37.83;13.40;;;;;;;;;;5071351;28;20024;-58
2024/01/09 11:40:11;;;;;;;39.90;13.18;;;;;;;;;;5063426;28;20028;-57
2024/01/09 11:42:37;;;;;;;48.50;14.73;;;;;;;;;;5069763;28;20573;-58
2024/01/09 11:45:07;;;;;;;43.60;15.18;;;;;;;;;;5071269;28;20027;-57
2024/01/09 11:47:34;;;;;;;37.80;13.52;;;;;;;;;;5067479;28;20103;-58
2024/01/09 11:49:59;;;;;;;42.97;15.32;;;;;;;;;;5070676;28;20341;-60
2024/01/09 11:52:26;;;;;;;36.95;13.60;;;;;;;;;;5070277;28;20022;-58
2024/01/09 11:54:52;;;;;;;39.67;13.77;;;;;;;;;;5066855;28;20040;-58
2024/01/09 11:57:19;;;;;;;36.97;13.27;;;;;;;;;;5066280;28;20036;-58
2024/01/09 11:59:44;;;;;;;40.05;14.30;;;;;;;;;;5065392;28;20024;-58
2024/01/09 12:02:09;;;;;;;43.90;14.30;;;;;;;;;;5062755;28;20016;-57
2024/01/09 12:04:34;;;;;;;37.50;13.60;;;;;;;;;;5065478;28;20099;-58
2024/01/09 12:06:59;;;;;;;39.87;14.73;;;;;;;;;;5062375;28;20032;-58
2024/01/09 12:09:28;;;;;;;39.58;13.85;;;;;;;;;;5070206;28;20520;-56
2024/01/09 12:11:53;;;;;;;44.00;13.73;;;;;;;;;;5073062;28;20036;-57
2024/01/09 12:14:18;;;;;;;41.40;14.40;;;;;;;;;;5070336;28;20104;-57
2024/01/09 12:16:43;;;;;;;40.28;13.32;;;;;;;;;;5067552;28;20028;-58
2024/01/09 12:19:09;;;;;;;36.33;13.77;;;;;;;;;;5069056;28;20028;-56
2024/01/09 12:21:34;;;;;;;43.90;15.45;;;;;;;;;;5065309;28;20138;-58
2024/01/09 12:24:01;;;;;;;42.92;14.40;;;;;;;;;;5069397;28;20037;-57
2024/01/09 12:26:27;;;;;;;47.15;15.48;;;;;;;;;;5082906;28;20024;-58
2024/01/09 12:28:53;;;;;;;39.75;13.63;;;;;;;;;;5078741;28;20016;-58
2024/01/09 12:31:18;;;;;;;39.05;13.95;;;;;;;;;;5085395;28;20077;-58
2024/01/09 12:33:44;;;;;;;42.50;14.30;;;;;;;;;;5072200;28;20504;-58
2024/01/09 12:36:09;;;;;;;39.03;14.00;;;;;;;;;;5078849;28;20028;-58
2024/01/09 12:38:34;;;;;;;42.03;13.87;;;;;;;;;;5071129;28;20024;-58
2024/01/09 12:41:00;;;;;;;40.87;15.17;;;;;;;;;;5077458;28;20039;-58
2024/01/09 12:43:26;;;;;;;45.75;15.60;;;;;;;;;;5058193;28;20025;-56
2024/01/09 12:45:51;;;;;;;44.30;15.05;;;;;;;;;;5063326;28;20552;-56
2024/01/09 12:48:16;;;;;;;38.50;13.57;;;;;;;;;;5068994;28;20021;-58
2024/01/09 12:50:41;;;;;;;42.30;14.63;;;;;;;;;;5069199;28;20020;-58
2024/01/09 12:53:07;;;;;;;43.88;16.15;;;;;;;;;;5063318;28;20094;-59
2024/01/09 12:55:32;;;;;;;42.65;15.63;;;;;;;;;;5068947;28;20400;-58
2024/01/09 12:57:58;;;;;;;35.33;13.93;;;;;;;;;;5056645;28;20036;-57
2024/01/09 13:00:24;;;;;;;40.08;14.82;;;;;;;;;;5064169;28;20496;-58
2024/01/09 13:02:49;;;;;;;42.75;14.65;;;;;;;;;;5067710;28;20090;-57
2024/01/09 13:05:14;;;;;;;39.33;14.45;;;;;;;;;;5070116;28;20017;-58
2024/01/09 13:07:39;;;;;;;39.17;13.43;;;;;;;;;;5061883;28;20020;-57
2024/01/09 13:10:05;;;;;;;39.47;14.30;;;;;;;;;;5061221;28;20469;-58
2024/01/09 13:12:30;;;;;;;40.80;14.65;;;;;;;;;;5056805;28;20048;-57
2024/01/09 13:14:55;;;;;;;38.15;14.98;;;;;;;;;;5059467;28;20025;-56
2024/01/09 13:17:22;;;;;;;40.67;14.45;;;;;;;;;;5066421;28;20550;-58
2024/01/09 13:19:50;;;;;;;42.33;15.15;;;;;;;;;;5067975;28;20415;-58
2024/01/09 13:22:15;;;;;;;40.83;15.98;;;;;;;;;;5068920;28;20340;-57
2024/01/09 13:24:40;;;;;;;37.38;14.40;;;;;;;;;;5063202;28;20031;-57
2024/01/09 13:27:05;;;;;;;41.87;15.07;;;;;;;;;;5065406;28;20021;-58
2024/01/09 13:29:30;;;;;;;40.63;14.73;;;;;;;;;;5069864;28;20031;-58
2024/01/09 13:31:55;;;;;;;41.78;14.98;;;;;;;;;;5063905;28;20029;-57
2024/01/09 13:34:21;;;;;;;40.83;15.00;;;;;;;;;;5072505;28;20027;-57
2024/01/09 13:36:47;;;;;;;44.97;15.07;;;;;;;;;;5070308;28;20052;-58
2024/01/09 13:39:14;;;;;;;39.97;14.82;;;;;;;;;;5067629;28;20091;-57
2024/01/09 13:41:40;;;;;;;41.78;15.13;;;;;;;;;;5064491;28;20024;-59
2024/01/09 13:44:05;;;;;;;42.50;15.27;;;;;;;;;;5071129;28;20024;-58
2024/01/09 13:46:30;;;;;;;40.58;15.18;;;;;;;;;;5070789;28;20025;-57
2024/01/09 13:48:55;;;;;;;38.53;14.67;;;;;;;;;;5073123;28;20062;-58
2024/01/09 13:51:22;;;;;;;42.15;15.02;;;;;;;;;;5068021;28;20034;-58
2024/01/09 13:53:47;;;;;;;43.65;15.07;;;;;;;;;;5072516;28;20074;-58
2024/01/09 13:56:15;;;;;;;42.27;14.90;;;;;;;;;;5072741;28;20020;-58
2024/01/09 13:58:41;;;;;;;43.33;16.33;;;;;;;;;;5060832;28;20079;-58
2024/01/09 14:01:06;;;;;;;45.03;15.90;;;;;;;;;;5068439;28;20468;-57
2024/01/09 14:03:31;;;;;;;45.88;16.05;;;;;;;;;;5072841;28;20465;-57
2024/01/09 14:05:57;;;;;;;47.47;15.15;;;;;;;;;;5073036;28;20032;-58
2024/01/09 14:08:22;;;;;;;40.70;15.23;;;;;;;;;;5056614;28;20032;-59
2024/01/09 14:10:47;;;;;;;44.30;15.03;;;;;;;;;;5068492;28;20797;-57